Terminal Aerodrome Forecast
Issued by NWS

Home | Current Version | Previous Version | Text Only | Print | Product List | Glossary On
Versions: 1 2 3 4 5 6 7 8 9 10 11 12 13 14 15 16 17
000
FTUS44 KLZK 302300
TAFHRO
TAF
KHRO 302334Z 3100/3124 17004KT P6SM BKN250
     FM310600 13004KT P6SM OVC120
     FM311400 14007KT P6SM BKN080 OVC100=

USA.gov is the U.S. government's official web portal to all federal, state and local government web resources and services.